sensor_id;sensor_type;location;lat;lon;timestamp;temperature;humidity
11944;DHT22;6031;50.220;10.122;2023-06-24T00:00:07;13.50;99.90
11944;DHT22;6031;50.220;10.122;2023-06-24T00:02:36;13.40;99.90
11944;DHT22;6031;50.220;10.122;2023-06-24T00:05:03;13.40;99.90
11944;DHT22;6031;50.220;10.122;2023-06-24T00:07:29;13.40;99.90
11944;DHT22;6031;50.220;10.122;2023-06-24T00:09:55;13.40;21.40
11944;DHT22;6031;50.220;10.122;2023-06-24T00:12:20;13.40;99.90
11944;DHT22;6031;50.220;10.122;2023-06-24T00:14:50;13.40;99.90
11944;DHT22;6031;50.220;10.122;2023-06-24T00:17:15;13.30;73.10
11944;DHT22;6031;50.220;10.122;2023-06-24T00:19:42;13.30;99.90
11944;DHT22;6031;50.220;10.122;2023-06-24T00:22:09;13.30;99.90
11944;DHT22;6031;50.220;10.122;2023-06-24T00:24:34;13.30;99.90
11944;DHT22;6031;50.220;10.122;2023-06-24T00:27:00;13.30;99.90
11944;DHT22;6031;50.220;10.122;2023-06-24T00:29:25;13.30;99.90
11944;DHT22;6031;50.220;10.122;2023-06-24T00:31:51;13.30;99.90
11944;DHT22;6031;50.220;10.122;2023-06-24T00:34:16;13.20;99.90
11944;DHT22;6031;50.220;10.122;2023-06-24T00:36:45;13.20;99.90
11944;DHT22;6031;50.220;10.122;2023-06-24T00:39:12;13.10;95.60
11944;DHT22;6031;50.220;10.122;2023-06-24T00:41:38;12.90;99.90
11944;DHT22;6031;50.220;10.122;2023-06-24T00:44:03;12.90;99.90
11944;DHT22;6031;50.220;10.122;2023-06-24T00:46:29;12.80;99.90
11944;DHT22;6031;50.220;10.122;2023-06-24T00:48:58;12.90;99.90
11944;DHT22;6031;50.220;10.122;2023-06-24T00:51:26;12.90;99.90
11944;DHT22;6031;50.220;10.122;2023-06-24T00:53:59;12.90;99.90
11944;DHT22;6031;50.220;10.122;2023-06-24T00:56:31;12.90;99.90
11944;DHT22;6031;50.220;10.122;2023-06-24T00:58:59;12.90;99.90
11944;DHT22;6031;50.220;10.122;2023-06-24T01:01:28;12.80;99.90
11944;DHT22;6031;50.220;10.122;2023-06-24T01:03:55;12.80;99.90
11944;DHT22;6031;50.220;10.122;2023-06-24T01:06:21;12.80;99.90
11944;DHT22;6031;50.220;10.122;2023-06-24T01:08:47;12.80;99.90
11944;DHT22;6031;50.220;10.122;2023-06-24T01:11:16;12.70;99.90
11944;DHT22;6031;50.220;10.122;2023-06-24T01:13:42;12.80;99.90
11944;DHT22;6031;50.220;10.122;2023-06-24T01:16:17;12.80;99.90
11944;DHT22;6031;50.220;10.122;2023-06-24T01:18:50;12.90;99.90
11944;DHT22;6031;50.220;10.122;2023-06-24T01:24:13;12.80;99.90
11944;DHT22;6031;50.220;10.122;2023-06-24T01:26:54;12.60;99.90
11944;DHT22;6031;50.220;10.122;2023-06-24T01:32:31;12.60;99.90
11944;DHT22;6031;50.220;10.122;2023-06-24T01:35:16;12.60;99.90
11944;DHT22;6031;50.220;10.122;2023-06-24T01:37:48;12.60;99.90
11944;DHT22;6031;50.220;10.122;2023-06-24T01:42:50;12.30;99.90
11944;DHT22;6031;50.220;10.122;2023-06-24T01:45:28;12.20;99.90
11944;DHT22;6031;50.220;10.122;2023-06-24T01:48:02;12.10;99.90
11944;DHT22;6031;50.220;10.122;2023-06-24T01:50:32;12.10;99.90
11944;DHT22;6031;50.220;10.122;2023-06-24T01:53:02;12.10;99.90
11944;DHT22;6031;50.220;10.122;2023-06-24T01:55:29;12.10;99.90
11944;DHT22;6031;50.220;10.122;2023-06-24T01:57:57;12.30;99.90
11944;DHT22;6031;50.220;10.122;2023-06-24T02:00:24;12.40;99.90
11944;DHT22;6031;50.220;10.122;2023-06-24T02:02:50;12.30;99.90
11944;DHT22;6031;50.220;10.122;2023-06-24T02:05:17;12.10;99.90
11944;DHT22;6031;50.220;10.122;2023-06-24T02:07:45;12.00;99.90
11944;DHT22;6031;50.220;10.122;2023-06-24T02:10:14;12.20;99.90
11944;DHT22;6031;50.220;10.122;2023-06-24T02:12:41;12.20;99.90
11944;DHT22;6031;50.220;10.122;2023-06-24T02:15:08;12.20;99.90
11944;DHT22;6031;50.220;10.122;2023-06-24T02:17:34;12.00;99.90
11944;DHT22;6031;50.220;10.122;2023-06-24T02:20:01;11.90;99.90
11944;DHT22;6031;50.220;10.122;2023-06-24T02:22:27;11.70;99.90
11944;DHT22;6031;50.220;10.122;2023-06-24T02:24:54;11.70;99.90
11944;DHT22;6031;50.220;10.122;2023-06-24T02:27:20;11.80;99.90
11944;DHT22;6031;50.220;10.122;2023-06-24T02:29:47;11.80;99.90
11944;DHT22;6031;50.220;10.122;2023-06-24T02:32:13;11.90;99.90
11944;DHT22;6031;50.220;10.122;2023-06-24T02:34:39;12.00;99.90
11944;DHT22;6031;50.220;10.122;2023-06-24T02:37:05;12.00;99.90
11944;DHT22;6031;50.220;10.122;2023-06-24T02:39:30;12.10;99.90
11944;DHT22;6031;50.220;10.122;2023-06-24T02:41:56;12.20;99.90
11944;DHT22;6031;50.220;10.122;2023-06-24T02:44:21;12.30;99.90
11944;DHT22;6031;50.220;10.122;2023-06-24T02:46:48;12.30;99.90
11944;DHT22;6031;50.220;10.122;2023-06-24T02:49:15;12.40;99.90
11944;DHT22;6031;50.220;10.122;2023-06-24T02:51:43;12.40;99.90
11944;DHT22;6031;50.220;10.122;2023-06-24T02:54:09;12.50;99.90
11944;DHT22;6031;50.220;10.122;2023-06-24T02:56:35;12.50;99.90
11944;DHT22;6031;50.220;10.122;2023-06-24T02:59:07;12.60;99.90
11944;DHT22;6031;50.220;10.122;2023-06-24T03:01:34;12.60;99.90
11944;DHT22;6031;50.220;10.122;2023-06-24T03:04:04;12.60;99.90
11944;DHT22;6031;50.220;10.122;2023-06-24T03:06:30;12.60;99.90
11944;DHT22;6031;50.220;10.122;2023-06-24T03:08:57;12.60;99.90
11944;DHT22;6031;50.220;10.122;2023-06-24T03:11:23;12.60;99.90
11944;DHT22;6031;50.220;10.122;2023-06-24T03:13:49;12.50;99.90
11944;DHT22;6031;50.220;10.122;2023-06-24T03:16:14;12.40;99.90
11944;DHT22;6031;50.220;10.122;2023-06-24T03:18:43;12.40;99.90
11944;DHT22;6031;50.220;10.122;2023-06-24T03:21:09;12.50;99.90
11944;DHT22;6031;50.220;10.122;2023-06-24T03:23:35;12.50;99.90
11944;DHT22;6031;50.220;10.122;2023-06-24T03:26:00;12.60;99.90
11944;DHT22;6031;50.220;10.122;2023-06-24T03:28:26;12.60;99.90
11944;DHT22;6031;50.220;10.122;2023-06-24T03:30:51;12.70;99.90
11944;DHT22;6031;50.220;10.122;2023-06-24T03:33:17;12.80;99.90
11944;DHT22;6031;50.220;10.122;2023-06-24T03:35:43;12.90;99.90
11944;DHT22;6031;50.220;10.122;2023-06-24T03:38:09;12.90;99.90
11944;DHT22;6031;50.220;10.122;2023-06-24T03:40:34;12.90;99.90
11944;DHT22;6031;50.220;10.122;2023-06-24T03:43:00;13.00;99.90
11944;DHT22;6031;50.220;10.122;2023-06-24T03:45:25;13.00;99.90
11944;DHT22;6031;50.220;10.122;2023-06-24T03:47:51;13.00;99.90
11944;DHT22;6031;50.220;10.122;2023-06-24T03:50:17;13.10;99.90
11944;DHT22;6031;50.220;10.122;2023-06-24T03:52:42;13.00;99.90
11944;DHT22;6031;50.220;10.122;2023-06-24T03:55:10;13.00;99.90
11944;DHT22;6031;50.220;10.122;2023-06-24T03:57:36;13.00;99.90
11944;DHT22;6031;50.220;10.122;2023-06-24T04:00:02;13.00;99.90
11944;DHT22;6031;50.220;10.122;2023-06-24T04:02:38;13.00;99.90
11944;DHT22;6031;50.220;10.122;2023-06-24T04:05:03;13.20;99.90
11944;DHT22;6031;50.220;10.122;2023-06-24T04:07:31;13.30;99.90
11944;DHT22;6031;50.220;10.122;2023-06-24T04:09:57;13.20;99.90
11944;DHT22;6031;50.220;10.122;2023-06-24T04:12:23;13.30;99.90
11944;DHT22;6031;50.220;10.122;2023-06-24T04:14:49;13.20;99.90
11944;DHT22;6031;50.220;10.122;2023-06-24T04:17:15;13.30;99.90
11944;DHT22;6031;50.220;10.122;2023-06-24T04:19:40;13.30;99.90
11944;DHT22;6031;50.220;10.122;2023-06-24T04:22:07;13.40;99.90
11944;DHT22;6031;50.220;10.122;2023-06-24T04:24:32;13.50;99.90
11944;DHT22;6031;50.220;10.122;2023-06-24T04:26:58;13.60;99.90
11944;DHT22;6031;50.220;10.122;2023-06-24T04:29:24;13.60;99.90
11944;DHT22;6031;50.220;10.122;2023-06-24T04:31:49;13.60;99.90
11944;DHT22;6031;50.220;10.122;2023-06-24T04:34:15;13.60;99.90
11944;DHT22;6031;50.220;10.122;2023-06-24T04:36:40;13.60;99.90
11944;DHT22;6031;50.220;10.122;2023-06-24T04:39:06;13.60;99.90
11944;DHT22;6031;50.220;10.122;2023-06-24T04:41:31;13.60;99.90
11944;DHT22;6031;50.220;10.122;2023-06-24T04:43:57;13.70;99.90
11944;DHT22;6031;50.220;10.122;2023-06-24T04:46:23;13.70;99.90
11944;DHT22;6031;50.220;10.122;2023-06-24T04:48:49;13.70;99.90
11944;DHT22;6031;50.220;10.122;2023-06-24T04:51:14;13.80;99.90
11944;DHT22;6031;50.220;10.122;2023-06-24T04:53:40;13.90;99.90
11944;DHT22;6031;50.220;10.122;2023-06-24T04:56:05;14.00;99.90
11944;DHT22;6031;50.220;10.122;2023-06-24T04:58:31;14.10;99.90
11944;DHT22;6031;50.220;10.122;2023-06-24T05:00:57;14.10;99.90
11944;DHT22;6031;50.220;10.122;2023-06-24T05:03:22;14.20;92.30
11944;DHT22;6031;50.220;10.122;2023-06-24T05:05:48;14.20;99.90
11944;DHT22;6031;50.220;10.122;2023-06-24T05:08:13;14.40;99.90
11944;DHT22;6031;50.220;10.122;2023-06-24T05:10:39;14.40;61.50
11944;DHT22;6031;50.220;10.122;2023-06-24T05:13:04;14.40;99.90
11944;DHT22;6031;50.220;10.122;2023-06-24T05:15:30;14.70;99.90
11944;DHT22;6031;50.220;10.122;2023-06-24T05:17:56;14.80;1.00
11944;DHT22;6031;50.220;10.122;2023-06-24T05:20:21;14.90;99.90
11944;DHT22;6031;50.220;10.122;2023-06-24T05:22:47;15.10;35.00
11944;DHT22;6031;50.220;10.122;2023-06-24T05:25:12;15.10;1.00
11944;DHT22;6031;50.220;10.122;2023-06-24T05:27:38;15.00;1.00
11944;DHT22;6031;50.220;10.122;2023-06-24T05:30:04;14.90;1.00
11944;DHT22;6031;50.220;10.122;2023-06-24T05:32:30;15.00;1.00
11944;DHT22;6031;50.220;10.122;2023-06-24T05:34:55;15.10;1.00
11944;DHT22;6031;50.220;10.122;2023-06-24T05:37:21;15.20;1.00
11944;DHT22;6031;50.220;10.122;2023-06-24T05:39:47;15.20;1.00
11944;DHT22;6031;50.220;10.122;2023-06-24T05:42:12;15.50;1.00
11944;DHT22;6031;50.220;10.122;2023-06-24T05:44:38;15.70;1.00
11944;DHT22;6031;50.220;10.122;2023-06-24T05:47:03;16.00;99.90
11944;DHT22;6031;50.220;10.122;2023-06-24T05:49:29;16.30;1.00
11944;DHT22;6031;50.220;10.122;2023-06-24T05:51:55;16.30;17.50
11944;DHT22;6031;50.220;10.122;2023-06-24T05:54:21;16.10;63.10
11944;DHT22;6031;50.220;10.122;2023-06-24T05:56:47;16.20;1.00
11944;DHT22;6031;50.220;10.122;2023-06-24T05:59:12;16.40;30.90
11944;DHT22;6031;50.220;10.122;2023-06-24T06:01:38;16.40;70.70
11944;DHT22;6031;50.220;10.122;2023-06-24T06:04:03;16.10;1.00
11944;DHT22;6031;50.220;10.122;2023-06-24T06:06:29;16.10;99.90
11944;DHT22;6031;50.220;10.122;2023-06-24T06:08:55;16.30;1.00
11944;DHT22;6031;50.220;10.122;2023-06-24T06:11:21;16.50;8.90
11944;DHT22;6031;50.220;10.122;2023-06-24T06:13:46;17.40;1.00
11944;DHT22;6031;50.220;10.122;2023-06-24T06:16:12;18.60;1.00
11944;DHT22;6031;50.220;10.122;2023-06-24T06:18:37;19.70;1.00
11944;DHT22;6031;50.220;10.122;2023-06-24T06:21:03;20.50;99.90
11944;DHT22;6031;50.220;10.122;2023-06-24T06:23:28;21.10;1.00
11944;DHT22;6031;50.220;10.122;2023-06-24T06:25:54;21.90;1.00
11944;DHT22;6031;50.220;10.122;2023-06-24T06:28:20;22.10;1.00
11944;DHT22;6031;50.220;10.122;2023-06-24T06:30:45;22.30;1.00
11944;DHT22;6031;50.220;10.122;2023-06-24T06:33:11;23.00;99.90
11944;DHT22;6031;50.220;10.122;2023-06-24T06:35:36;23.30;99.90
11944;DHT22;6031;50.220;10.122;2023-06-24T06:38:02;23.70;62.30
11944;DHT22;6031;50.220;10.122;2023-06-24T06:40:27;23.90;1.00
11944;DHT22;6031;50.220;10.122;2023-06-24T06:42:54;24.30;1.00
11944;DHT22;6031;50.220;10.122;2023-06-24T06:45:19;24.40;1.00
11944;DHT22;6031;50.220;10.122;2023-06-24T06:47:45;25.00;1.00
11944;DHT22;6031;50.220;10.122;2023-06-24T06:50:10;25.60;1.00
11944;DHT22;6031;50.220;10.122;2023-06-24T06:52:36;25.30;1.00
11944;DHT22;6031;50.220;10.122;2023-06-24T06:55:01;25.10;1.00
11944;DHT22;6031;50.220;10.122;2023-06-24T06:57:27;25.10;1.00
11944;DHT22;6031;50.220;10.122;2023-06-24T06:59:53;25.90;1.00
11944;DHT22;6031;50.220;10.122;2023-06-24T07:02:19;26.90;1.00
11944;DHT22;6031;50.220;10.122;2023-06-24T07:04:45;26.90;1.00
11944;DHT22;6031;50.220;10.122;2023-06-24T07:07:13;27.10;1.00
11944;DHT22;6031;50.220;10.122;2023-06-24T07:09:38;26.50;1.00
11944;DHT22;6031;50.220;10.122;2023-06-24T07:12:05;26.60;1.00
11944;DHT22;6031;50.220;10.122;2023-06-24T07:14:31;27.90;1.00
11944;DHT22;6031;50.220;10.122;2023-06-24T07:16:56;28.70;1.00
11944;DHT22;6031;50.220;10.122;2023-06-24T07:19:22;28.80;1.00
11944;DHT22;6031;50.220;10.122;2023-06-24T07:21:47;29.50;1.00
11944;DHT22;6031;50.220;10.122;2023-06-24T07:24:16;28.90;1.00
11944;DHT22;6031;50.220;10.122;2023-06-24T07:26:41;29.70;1.00
11944;DHT22;6031;50.220;10.122;2023-06-24T07:29:07;30.10;1.00
11944;DHT22;6031;50.220;10.122;2023-06-24T07:31:33;30.50;1.00
11944;DHT22;6031;50.220;10.122;2023-06-24T07:33:59;30.60;1.00
11944;DHT22;6031;50.220;10.122;2023-06-24T07:36:24;30.20;1.00
11944;DHT22;6031;50.220;10.122;2023-06-24T07:38:50;30.60;1.00
11944;DHT22;6031;50.220;10.122;2023-06-24T07:41:16;30.90;1.00
11944;DHT22;6031;50.220;10.122;2023-06-24T07:43:41;31.70;1.00
11944;DHT22;6031;50.220;10.122;2023-06-24T07:46:07;31.00;1.00
11944;DHT22;6031;50.220;10.122;2023-06-24T07:48:32;30.00;1.00
11944;DHT22;6031;50.220;10.122;2023-06-24T07:50:58;30.20;1.00
11944;DHT22;6031;50.220;10.122;2023-06-24T07:53:24;31.20;99.90
11944;DHT22;6031;50.220;10.122;2023-06-24T07:55:49;31.50;99.90
11944;DHT22;6031;50.220;10.122;2023-06-24T07:58:15;32.10;99.90
11944;DHT22;6031;50.220;10.122;2023-06-24T08:00:40;32.50;99.90
11944;DHT22;6031;50.220;10.122;2023-06-24T08:03:06;32.70;99.90
11944;DHT22;6031;50.220;10.122;2023-06-24T08:05:31;32.80;99.90
11944;DHT22;6031;50.220;10.122;2023-06-24T08:07:57;33.00;99.90
11944;DHT22;6031;50.220;10.122;2023-06-24T08:10:22;33.60;99.90
11944;DHT22;6031;50.220;10.122;2023-06-24T08:12:48;33.90;99.90
11944;DHT22;6031;50.220;10.122;2023-06-24T08:15:14;33.90;99.90
11944;DHT22;6031;50.220;10.122;2023-06-24T08:17:39;34.10;99.90
11944;DHT22;6031;50.220;10.122;2023-06-24T08:20:05;33.90;99.90
11944;DHT22;6031;50.220;10.122;2023-06-24T08:22:31;32.70;99.90
11944;DHT22;6031;50.220;10.122;2023-06-24T08:24:58;32.70;99.90
11944;DHT22;6031;50.220;10.122;2023-06-24T08:27:24;32.50;99.90
11944;DHT22;6031;50.220;10.122;2023-06-24T08:29:49;32.00;99.90
11944;DHT22;6031;50.220;10.122;2023-06-24T08:32:15;32.70;99.90
11944;DHT22;6031;50.220;10.122;2023-06-24T08:34:40;33.30;99.90
11944;DHT22;6031;50.220;10.122;2023-06-24T08:37:06;33.70;99.90
11944;DHT22;6031;50.220;10.122;2023-06-24T08:39:31;34.50;99.90
11944;DHT22;6031;50.220;10.122;2023-06-24T08:41:57;34.60;99.90
11944;DHT22;6031;50.220;10.122;2023-06-24T08:44:22;34.80;99.90
11944;DHT22;6031;50.220;10.122;2023-06-24T08:46:48;35.10;99.90
11944;DHT22;6031;50.220;10.122;2023-06-24T08:52:02;34.40;99.90
11944;DHT22;6031;50.220;10.122;2023-06-24T08:54:28;34.70;99.90
11944;DHT22;6031;50.220;10.122;2023-06-24T08:56:55;34.90;99.90
11944;DHT22;6031;50.220;10.122;2023-06-24T08:59:21;34.90;99.90
11944;DHT22;6031;50.220;10.122;2023-06-24T09:01:47;35.00;99.90
11944;DHT22;6031;50.220;10.122;2023-06-24T09:04:12;34.70;99.90
11944;DHT22;6031;50.220;10.122;2023-06-24T09:06:38;35.10;99.90
11944;DHT22;6031;50.220;10.122;2023-06-24T09:09:03;34.90;99.90
11944;DHT22;6031;50.220;10.122;2023-06-24T09:11:30;35.30;99.90
11944;DHT22;6031;50.220;10.122;2023-06-24T09:14:00;34.80;99.90
11944;DHT22;6031;50.220;10.122;2023-06-24T09:16:26;34.90;99.90
11944;DHT22;6031;50.220;10.122;2023-06-24T09:18:53;35.30;99.90
11944;DHT22;6031;50.220;10.122;2023-06-24T09:21:25;34.70;99.90
11944;DHT22;6031;50.220;10.122;2023-06-24T09:23:53;35.10;99.90
11944;DHT22;6031;50.220;10.122;2023-06-24T09:26:19;35.40;99.90
11944;DHT22;6031;50.220;10.122;2023-06-24T09:28:48;34.60;99.90
11944;DHT22;6031;50.220;10.122;2023-06-24T09:31:14;34.10;99.90
11944;DHT22;6031;50.220;10.122;2023-06-24T09:33:40;34.70;99.90
11944;DHT22;6031;50.220;10.122;2023-06-24T09:36:06;34.40;99.90
11944;DHT22;6031;50.220;10.122;2023-06-24T09:38:36;35.00;99.90
11944;DHT22;6031;50.220;10.122;2023-06-24T09:41:02;35.20;99.90
11944;DHT22;6031;50.220;10.122;2023-06-24T09:43:29;35.20;99.90
11944;DHT22;6031;50.220;10.122;2023-06-24T09:45:56;36.10;99.90
11944;DHT22;6031;50.220;10.122;2023-06-24T09:48:22;35.60;99.90
11944;DHT22;6031;50.220;10.122;2023-06-24T09:50:48;36.00;99.90
11944;DHT22;6031;50.220;10.122;2023-06-24T09:53:14;36.00;99.90
11944;DHT22;6031;50.220;10.122;2023-06-24T09:55:40;37.10;99.90
11944;DHT22;6031;50.220;10.122;2023-06-24T09:58:10;37.70;99.90
11944;DHT22;6031;50.220;10.122;2023-06-24T10:00:36;38.80;99.90
11944;DHT22;6031;50.220;10.122;2023-06-24T10:03:02;37.80;99.90
11944;DHT22;6031;50.220;10.122;2023-06-24T10:05:28;37.20;99.90
11944;DHT22;6031;50.220;10.122;2023-06-24T10:07:54;37.40;99.90
11944;DHT22;6031;50.220;10.122;2023-06-24T10:10:19;36.50;99.90
11944;DHT22;6031;50.220;10.122;2023-06-24T10:12:45;35.60;99.90
11944;DHT22;6031;50.220;10.122;2023-06-24T10:15:10;35.20;99.90
11944;DHT22;6031;50.220;10.122;2023-06-24T10:17:37;36.00;99.90
11944;DHT22;6031;50.220;10.122;2023-06-24T10:20:06;36.40;99.90
11944;DHT22;6031;50.220;10.122;2023-06-24T10:22:32;36.00;99.90
11944;DHT22;6031;50.220;10.122;2023-06-24T10:25:01;35.00;99.90
11944;DHT22;6031;50.220;10.122;2023-06-24T10:27:27;34.10;99.90
11944;DHT22;6031;50.220;10.122;2023-06-24T10:30:02;33.00;99.90
11944;DHT22;6031;50.220;10.122;2023-06-24T10:32:39;34.50;99.90
11944;DHT22;6031;50.220;10.122;2023-06-24T10:35:05;34.80;99.90
11944;DHT22;6031;50.220;10.122;2023-06-24T10:37:32;32.90;99.90
11944;DHT22;6031;50.220;10.122;2023-06-24T10:40:02;31.70;99.90
11944;DHT22;6031;50.220;10.122;2023-06-24T10:42:44;31.50;99.90
11944;DHT22;6031;50.220;10.122;2023-06-24T10:48:04;30.70;99.90
11944;DHT22;6031;50.220;10.122;2023-06-24T10:50:30;30.20;99.90
11944;DHT22;6031;50.220;10.122;2023-06-24T10:52:55;29.10;99.90
11944;DHT22;6031;50.220;10.122;2023-06-24T10:55:25;28.40;99.90
11944;DHT22;6031;50.220;10.122;2023-06-24T10:57:51;30.60;99.90
11944;DHT22;6031;50.220;10.122;2023-06-24T11:00:17;33.30;99.90
11944;DHT22;6031;50.220;10.122;2023-06-24T11:02:43;35.20;99.90
11944;DHT22;6031;50.220;10.122;2023-06-24T11:05:09;35.50;99.90
11944;DHT22;6031;50.220;10.122;2023-06-24T11:07:39;34.20;99.90
11944;DHT22;6031;50.220;10.122;2023-06-24T11:12:33;35.10;99.90
11944;DHT22;6031;50.220;10.122;2023-06-24T11:15:03;34.30;99.90
11944;DHT22;6031;50.220;10.122;2023-06-24T11:17:29;34.10;99.90
11944;DHT22;6031;50.220;10.122;2023-06-24T11:19:56;34.30;99.90
11944;DHT22;6031;50.220;10.122;2023-06-24T11:22:23;35.20;99.90
11944;DHT22;6031;50.220;10.122;2023-06-24T11:24:49;36.10;99.90
11944;DHT22;6031;50.220;10.122;2023-06-24T11:27:14;37.30;99.90
11944;DHT22;6031;50.220;10.122;2023-06-24T11:29:40;35.90;99.90
11944;DHT22;6031;50.220;10.122;2023-06-24T11:32:09;34.10;99.90
11944;DHT22;6031;50.220;10.122;2023-06-24T11:34:35;33.10;99.90
11944;DHT22;6031;50.220;10.122;2023-06-24T11:37:11;31.60;99.90
11944;DHT22;6031;50.220;10.122;2023-06-24T11:39:37;30.30;99.90
11944;DHT22;6031;50.220;10.122;2023-06-24T11:42:06;30.20;99.90
11944;DHT22;6031;50.220;10.122;2023-06-24T11:44:32;30.40;99.90
11944;DHT22;6031;50.220;10.122;2023-06-24T11:47:07;32.20;99.90
11944;DHT22;6031;50.220;10.122;2023-06-24T11:49:55;34.30;99.90
11944;DHT22;6031;50.220;10.122;2023-06-24T11:52:42;34.70;99.90
11944;DHT22;6031;50.220;10.122;2023-06-24T11:55:22;33.90;99.90
11944;DHT22;6031;50.220;10.122;2023-06-24T12:00:23;33.00;99.90
11944;DHT22;6031;50.220;10.122;2023-06-24T12:03:00;33.60;99.90
11944;DHT22;6031;50.220;10.122;2023-06-24T12:05:31;35.50;99.90
11944;DHT22;6031;50.220;10.122;2023-06-24T12:08:01;36.80;99.90
11944;DHT22;6031;50.220;10.122;2023-06-24T12:10:28;37.40;99.90
11944;DHT22;6031;50.220;10.122;2023-06-24T12:12:56;37.60;99.90
11944;DHT22;6031;50.220;10.122;2023-06-24T12:15:23;36.30;99.90
11944;DHT22;6031;50.220;10.122;2023-06-24T12:17:48;34.10;99.90
11944;DHT22;6031;50.220;10.122;2023-06-24T12:20:15;33.30;99.90
11944;DHT22;6031;50.220;10.122;2023-06-24T12:22:41;33.40;99.90
11944;DHT22;6031;50.220;10.122;2023-06-24T12:25:07;35.10;99.90
11944;DHT22;6031;50.220;10.122;2023-06-24T12:27:33;35.70;99.90
11944;DHT22;6031;50.220;10.122;2023-06-24T12:29:59;36.50;99.90
11944;DHT22;6031;50.220;10.122;2023-06-24T12:32:25;36.60;99.90
11944;DHT22;6031;50.220;10.122;2023-06-24T12:34:51;36.90;99.90
11944;DHT22;6031;50.220;10.122;2023-06-24T12:37:16;36.80;99.90
11944;DHT22;6031;50.220;10.122;2023-06-24T12:39:42;37.50;99.90
11944;DHT22;6031;50.220;10.122;2023-06-24T12:42:08;38.00;99.90
11944;DHT22;6031;50.220;10.122;2023-06-24T12:44:34;38.50;99.90
11944;DHT22;6031;50.220;10.122;2023-06-24T12:46:59;38.70;99.90
11944;DHT22;6031;50.220;10.122;2023-06-24T12:49:25;35.80;99.90
11944;DHT22;6031;50.220;10.122;2023-06-24T12:51:50;34.80;99.90
11944;DHT22;6031;50.220;10.122;2023-06-24T12:54:16;33.80;99.90
11944;DHT22;6031;50.220;10.122;2023-06-24T12:56:41;32.60;99.90
11944;DHT22;6031;50.220;10.122;2023-06-24T12:59:07;33.00;99.90
11944;DHT22;6031;50.220;10.122;2023-06-24T13:01:32;33.40;99.90
11944;DHT22;6031;50.220;10.122;2023-06-24T13:03:58;32.70;99.90
11944;DHT22;6031;50.220;10.122;2023-06-24T13:06:24;31.70;99.90
11944;DHT22;6031;50.220;10.122;2023-06-24T13:08:50;30.80;99.90
11944;DHT22;6031;50.220;10.122;2023-06-24T13:11:15;30.40;99.90
11944;DHT22;6031;50.220;10.122;2023-06-24T13:13:41;30.40;99.90
11944;DHT22;6031;50.220;10.122;2023-06-24T13:16:06;31.30;99.90
11944;DHT22;6031;50.220;10.122;2023-06-24T13:18:32;32.10;99.90
11944;DHT22;6031;50.220;10.122;2023-06-24T13:20:57;32.90;99.90
11944;DHT22;6031;50.220;10.122;2023-06-24T13:23:23;34.00;99.90
11944;DHT22;6031;50.220;10.122;2023-06-24T13:25:48;34.90;99.90
11944;DHT22;6031;50.220;10.122;2023-06-24T13:28:14;35.30;99.90
11944;DHT22;6031;50.220;10.122;2023-06-24T13:30:39;36.00;99.90
11944;DHT22;6031;50.220;10.122;2023-06-24T13:33:05;35.30;99.90
11944;DHT22;6031;50.220;10.122;2023-06-24T13:35:30;34.70;99.90
11944;DHT22;6031;50.220;10.122;2023-06-24T13:37:56;33.90;99.90
11944;DHT22;6031;50.220;10.122;2023-06-24T13:40:23;34.20;99.90
11944;DHT22;6031;50.220;10.122;2023-06-24T13:42:50;33.90;99.90
11944;DHT22;6031;50.220;10.122;2023-06-24T13:45:15;33.80;99.90
11944;DHT22;6031;50.220;10.122;2023-06-24T13:47:41;33.10;99.90
11944;DHT22;6031;50.220;10.122;2023-06-24T13:50:07;32.80;99.90
11944;DHT22;6031;50.220;10.122;2023-06-24T13:52:33;32.80;99.90
11944;DHT22;6031;50.220;10.122;2023-06-24T13:54:58;33.00;99.90
11944;DHT22;6031;50.220;10.122;2023-06-24T13:57:24;32.90;99.90
11944;DHT22;6031;50.220;10.122;2023-06-24T13:59:49;32.50;99.90
11944;DHT22;6031;50.220;10.122;2023-06-24T14:02:15;32.00;99.90
11944;DHT22;6031;50.220;10.122;2023-06-24T14:04:40;31.90;99.90
11944;DHT22;6031;50.220;10.122;2023-06-24T14:07:07;32.30;99.90
11944;DHT22;6031;50.220;10.122;2023-06-24T14:09:33;32.00;99.90
11944;DHT22;6031;50.220;10.122;2023-06-24T14:11:59;32.60;99.90
11944;DHT22;6031;50.220;10.122;2023-06-24T14:14:25;32.90;99.90
11944;DHT22;6031;50.220;10.122;2023-06-24T14:16:51;34.10;99.90
11944;DHT22;6031;50.220;10.122;2023-06-24T14:19:16;33.70;99.90
11944;DHT22;6031;50.220;10.122;2023-06-24T14:21:42;33.00;99.90
11944;DHT22;6031;50.220;10.122;2023-06-24T14:24:07;32.40;99.90
11944;DHT22;6031;50.220;10.122;2023-06-24T14:26:35;31.20;99.90
11944;DHT22;6031;50.220;10.122;2023-06-24T14:29:01;30.70;99.90
11944;DHT22;6031;50.220;10.122;2023-06-24T14:31:27;30.00;99.90
11944;DHT22;6031;50.220;10.122;2023-06-24T14:33:52;29.70;99.90
11944;DHT22;6031;50.220;10.122;2023-06-24T14:36:18;29.50;99.90
11944;DHT22;6031;50.220;10.122;2023-06-24T14:38:44;29.60;99.90
11944;DHT22;6031;50.220;10.122;2023-06-24T14:41:10;30.10;99.90
11944;DHT22;6031;50.220;10.122;2023-06-24T14:43:36;30.40;99.90
11944;DHT22;6031;50.220;10.122;2023-06-24T14:46:01;30.50;99.90
11944;DHT22;6031;50.220;10.122;2023-06-24T14:48:27;30.50;99.90
11944;DHT22;6031;50.220;10.122;2023-06-24T14:50:53;30.60;99.90
11944;DHT22;6031;50.220;10.122;2023-06-24T14:53:18;30.50;99.90
11944;DHT22;6031;50.220;10.122;2023-06-24T14:55:45;30.30;99.90
11944;DHT22;6031;50.220;10.122;2023-06-24T14:58:11;29.80;99.90
11944;DHT22;6031;50.220;10.122;2023-06-24T15:00:36;29.40;99.90
11944;DHT22;6031;50.220;10.122;2023-06-24T15:03:02;29.10;99.90
11944;DHT22;6031;50.220;10.122;2023-06-24T15:05:27;29.50;99.90
11944;DHT22;6031;50.220;10.122;2023-06-24T15:07:53;30.20;99.90
11944;DHT22;6031;50.220;10.122;2023-06-24T15:10:18;30.80;99.90
11944;DHT22;6031;50.220;10.122;2023-06-24T15:12:44;31.60;99.90
11944;DHT22;6031;50.220;10.122;2023-06-24T15:15:10;32.20;99.90
11944;DHT22;6031;50.220;10.122;2023-06-24T15:17:35;32.90;99.90
11944;DHT22;6031;50.220;10.122;2023-06-24T15:20:08;32.70;99.90
11944;DHT22;6031;50.220;10.122;2023-06-24T15:22:37;33.20;99.90
11944;DHT22;6031;50.220;10.122;2023-06-24T15:25:03;33.60;99.90
11944;DHT22;6031;50.220;10.122;2023-06-24T15:27:29;33.70;99.90
11944;DHT22;6031;50.220;10.122;2023-06-24T15:29:54;33.30;99.90
11944;DHT22;6031;50.220;10.122;2023-06-24T15:32:20;33.40;99.90
11944;DHT22;6031;50.220;10.122;2023-06-24T15:34:45;33.90;99.90
11944;DHT22;6031;50.220;10.122;2023-06-24T15:37:11;33.40;99.90
11944;DHT22;6031;50.220;10.122;2023-06-24T15:39:36;32.70;99.90
11944;DHT22;6031;50.220;10.122;2023-06-24T15:42:02;33.10;99.90
11944;DHT22;6031;50.220;10.122;2023-06-24T15:44:27;32.80;99.90
11944;DHT22;6031;50.220;10.122;2023-06-24T15:46:53;33.20;99.90